Time;durP1;ratioP1;P1;durP2;ratioP2;P2;SDS_P1;SDS_P2;PMS_P1;PMS_P2;Temp;Humidity;BMP_temperature;BMP_pressure;BME280_temperature;BME280_humidity;BME280_pressure;Samples;Min_cycle;Max_cycle;Signal;HPM_P1;HPM_P2
2022/01/05 00:00:12;;;;;;;;;4.60;2.60;;;;;6.95;59.89;100136.00;4976110;28;45822;-54
2022/01/05 00:02:39;;;;;;;;;2.60;1.00;;;;;6.93;59.58;100147.09;4974850;28;46346;-54
2022/01/05 00:05:06;;;;;;;;;2.00;2.00;;;;;6.89;59.45;100148.56;4975470;28;45379;-55
2022/01/05 00:07:32;;;;;;;;;4.60;2.60;;;;;6.83;59.92;100163.03;4975088;28;45683;-51
2022/01/05 00:09:58;;;;;;;;;2.00;2.00;;;;;6.78;59.87;100150.00;4974622;28;45726;-52
2022/01/05 00:12:24;;;;;;;;;2.00;1.60;;;;;6.75;60.11;100169.47;4975069;28;46259;-56
2022/01/05 00:14:49;;;;;;;;;2.00;0.00;;;;;6.67;59.96;100159.56;4958131;28;45508;-55
2022/01/05 00:17:15;;;;;;;;;2.75;2.00;;;;;6.63;59.60;100166.47;4975417;28;45785;-56
2022/01/05 00:19:40;;;;;;;;;1.00;1.00;;;;;6.61;60.09;100166.66;4975516;28;45217;-55
2022/01/05 00:22:06;;;;;;;;;5.75;5.75;;;;;6.61;59.85;100152.19;4975209;28;45236;-50
2022/01/05 00:24:32;;;;;;;;;1.50;1.50;;;;;6.59;58.76;100166.03;4974687;28;45360;-53
2022/01/05 00:26:57;;;;;;;;;0.00;0.00;;;;;6.61;58.88;100165.81;4975658;28;45471;-54
2022/01/05 00:29:23;;;;;;;;;2.00;0.75;;;;;6.58;58.93;100167.06;4975831;28;45282;-51
2022/01/05 00:31:48;;;;;;;;;3.00;2.00;;;;;6.48;58.87;100161.97;4975164;28;46496;-51
2022/01/05 00:34:14;;;;;;;;;1.00;1.00;;;;;6.53;58.30;100169.56;4975137;28;45397;-54
2022/01/05 00:36:39;;;;;;;;;0.75;0.75;;;;;6.53;59.00;100169.56;4975293;28;45328;-52
2022/01/05 00:39:05;;;;;;;;;2.00;1.25;;;;;6.55;58.60;100174.81;4975612;28;45399;-55
2022/01/05 00:41:30;;;;;;;;;1.50;1.50;;;;;6.54;58.55;100171.22;4975084;28;46604;-55
2022/01/05 00:43:56;;;;;;;;;2.75;1.25;;;;;6.47;58.52;100175.81;4974935;28;45387;-54
2022/01/05 00:46:22;;;;;;;;;4.50;2.00;;;;;6.46;58.16;100190.47;4974446;28;45237;-52
2022/01/05 00:48:47;;;;;;;;;1.00;1.00;;;;;6.45;58.13;100191.53;4957896;28;45317;-53
2022/01/05 00:51:15;;;;;;;;;2.00;2.00;;;;;6.16;59.21;100144.31;4975086;28;46822;-53
2022/01/05 00:53:40;;;;;;;;;2.40;1.20;;;;;6.38;59.06;100196.91;4974691;28;45352;-55
2022/01/05 00:56:06;;;;;;;;;2.00;2.00;;;;;6.44;59.13;100200.72;4975379;28;45288;-52
2022/01/05 00:58:32;;;;;;;;;3.00;1.00;;;;;6.41;58.43;100196.50;4975342;28;45470;-54
2022/01/05 01:00:57;;;;;;;;;2.00;1.00;;;;;6.42;59.35;100209.13;4957513;28;48337;-56
2022/01/05 01:03:23;;;;;;;;;3.25;1.25;;;;;6.30;58.46;100189.72;4975442;28;45854;-53
2022/01/05 01:05:48;;;;;;;;;2.75;2.75;;;;;6.17;58.94;100179.56;4975162;28;45408;-52
2022/01/05 01:08:14;;;;;;;;;2.00;1.00;;;;;6.32;59.07;100204.00;4963988;28;45408;-51
2022/01/05 01:10:39;;;;;;;;;2.00;1.00;;;;;6.38;58.76;100210.53;4991286;28;46038;-53
2022/01/05 01:13:05;;;;;;;;;1.00;1.00;;;;;6.40;59.25;100223.97;4992889;28;45383;-54
2022/01/05 01:15:31;;;;;;;;;4.50;1.00;;;;;6.40;58.70;100218.53;4977577;28;45385;-54
2022/01/05 01:17:56;;;;;;;;;4.00;1.75;;;;;6.40;59.95;100233.00;4994810;28;45411;-51
2022/01/05 01:20:22;;;;;;;;;2.00;1.00;;;;;6.36;58.99;100238.00;4994766;28;45576;-54
2022/01/05 01:22:48;;;;;;;;;2.00;1.00;;;;;6.34;59.12;100242.81;4994570;28;45346;-53
2022/01/05 01:25:14;;;;;;;;;1.00;1.00;;;;;6.32;59.15;100238.59;4977105;28;45388;-53
2022/01/05 01:27:42;;;;;;;;;2.75;1.50;;;;;6.27;58.69;100238.31;4995232;28;45258;-53
2022/01/05 01:30:09;;;;;;;;;2.20;2.20;;;;;6.25;58.52;100244.00;4994321;28;46120;-53
2022/01/05 01:32:35;;;;;;;;;4.60;1.20;;;;;6.23;58.95;100241.47;4994086;28;45467;-52
2022/01/05 01:35:01;;;;;;;;;4.50;2.00;;;;;6.27;59.11;100246.50;4994633;28;45367;-53
2022/01/05 01:37:26;;;;;;;;;1.80;1.20;;;;;6.21;59.02;100251.72;4981883;28;45416;-55
2022/01/05 01:39:52;;;;;;;;;1.00;1.00;;;;;6.21;59.29;100256.31;4978464;28;46369;-51
2022/01/05 01:42:17;;;;;;;;;1.25;1.00;;;;;6.05;58.73;100232.88;4977770;28;45230;-52
2022/01/05 01:44:43;;;;;;;;;7.75;3.00;;;;;6.22;58.30;100264.31;4978359;28;45336;-50
2022/01/05 01:47:09;;;;;;;;;1.40;1.40;;;;;6.19;59.20;100261.13;4976820;28;45440;-51
2022/01/05 01:49:35;;;;;;;;;3.00;2.00;;;;;6.24;58.41;100277.72;4976797;28;45526;-54
2022/01/05 01:52:01;;;;;;;;;5.00;1.60;;;;;6.21;59.13;100278.97;4978257;28;45883;-57
2022/01/05 01:54:28;;;;;;;;;2.75;2.00;;;;;6.16;57.69;100292.34;4960638;28;45403;-55
2022/01/05 01:56:53;;;;;;;;;2.00;1.00;;;;;6.16;58.13;100283.28;4960897;28;45394;-51
2022/01/05 01:59:19;;;;;;;;;5.50;1.00;;;;;5.93;58.55;100254.34;4977692;28;45561;-57
2022/01/05 02:01:44;;;;;;;;;1.50;1.25;;;;;6.17;58.60;100290.44;4978165;28;45530;-52
2022/01/05 02:04:10;;;;;;;;;5.75;1.00;;;;;6.17;57.82;100301.31;4960020;28;45670;-51
2022/01/05 02:06:35;;;;;;;;;1.50;1.50;;;;;6.15;58.57;100298.81;4978621;28;45452;-56
2022/01/05 02:09:01;;;;;;;;;2.00;1.00;;;;;6.16;58.00;100311.41;4956871;28;45375;-53
2022/01/05 02:11:26;;;;;;;;;3.00;1.50;;;;;6.16;57.62;100318.72;4971400;28;45376;-53
2022/01/05 02:13:52;;;;;;;;;3.00;2.00;;;;;6.10;58.62;100313.00;4976416;28;45424;-56
2022/01/05 02:16:19;;;;;;;;;1.00;1.00;;;;;6.15;57.66;100322.50;4978061;28;45362;-54
2022/01/05 02:19:00;;;;;;;;;1.00;1.00;;;;;6.09;58.43;100327.66;4977093;28;45651;-55
2022/01/05 02:21:37;;;;;;;;;6.00;1.00;;;;;6.07;58.57;100316.13;4976995;28;45446;-52
2022/01/05 02:24:06;;;;;;;;;3.60;2.00;;;;;6.07;57.64;100323.44;4977466;28;45359;-57
2022/01/05 02:26:32;;;;;;;;;1.60;1.00;;;;;5.89;57.84;100302.06;4977946;28;45345;-54
2022/01/05 02:28:58;;;;;;;;;0.25;0.25;;;;;6.06;57.88;100332.66;4977172;28;45541;-50
2022/01/05 02:31:23;;;;;;;;;5.00;1.75;;;;;6.05;57.81;100331.84;4977479;28;45498;-52
2022/01/05 02:33:49;;;;;;;;;4.00;1.00;;;;;6.07;58.93;100335.19;4976910;28;45315;-54
2022/01/05 02:36:18;;;;;;;;;1.25;1.25;;;;;5.75;58.39;100290.13;4959865;28;45607;-51
2022/01/05 02:38:44;;;;;;;;;1.80;1.80;;;;;5.94;58.15;100327.66;4957514;28;45920;-56
2022/01/05 02:41:10;;;;;;;;;2.40;1.40;;;;;5.97;58.53;100326.44;4956514;28;45324;-54
2022/01/05 02:43:36;;;;;;;;;1.40;1.00;;;;;6.03;58.23;100336.59;4956333;28;45425;-51
2022/01/05 02:46:03;;;;;;;;;1.00;1.00;;;;;6.02;58.39;100340.38;4940822;28;45508;-53
2022/01/05 02:48:28;;;;;;;;;1.00;1.00;;;;;6.00;58.71;100338.84;4956892;28;45422;-54
2022/01/05 02:50:57;;;;;;;;;1.75;1.75;;;;;5.75;59.18;100299.16;4957335;28;45857;-56
2022/01/05 02:53:23;;;;;;;;;1.00;0.40;;;;;5.78;58.82;100300.66;4957641;28;45409;-54
2022/01/05 02:55:48;;;;;;;;;4.25;1.50;;;;;5.92;58.88;100335.19;4957176;28;45628;-50
2022/01/05 02:58:14;;;;;;;;;4.25;1.00;;;;;5.95;59.16;100336.69;4957279;28;45493;-53
2022/01/05 03:00:40;;;;;;;;;2.00;2.00;;;;;5.73;58.96;100308.56;4957484;28;45440;-55
2022/01/05 03:03:05;;;;;;;;;2.60;2.00;;;;;5.83;58.43;100341.81;4957358;28;45337;-54
2022/01/05 03:05:31;;;;;;;;;6.00;2.00;;;;;5.84;58.46;100351.66;4957556;28;45498;-55
2022/01/05 03:07:56;;;;;;;;;0.50;0.50;;;;;5.83;58.67;100352.69;4957040;28;45344;-54
2022/01/05 03:10:22;;;;;;;;;1.25;1.25;;;;;5.57;58.87;100362.19;4956193;28;45536;-55
2022/01/05 03:12:47;;;;;;;;;2.00;0.50;;;;;5.61;58.98;100363.50;4956661;28;45406;-55
2022/01/05 03:15:13;;;;;;;;;2.00;1.00;;;;;5.65;59.73;100367.53;4957734;28;45274;-54
2022/01/05 03:17:39;;;;;;;;;2.00;2.00;;;;;5.68;59.81;100372.63;4957196;28;46671;-54
2022/01/05 03:20:05;;;;;;;;;4.50;1.00;;;;;5.73;59.72;100372.06;4956834;28;45344;-53
2022/01/05 03:22:31;;;;;;;;;3.80;1.40;;;;;5.74;59.72;100381.91;4972237;28;45360;-51
2022/01/05 03:24:56;;;;;;;;;1.00;1.00;;;;;5.61;58.56;100365.41;4939785;28;45376;-51
2022/01/05 03:27:22;;;;;;;;;4.50;4.50;;;;;5.39;59.95;100340.81;4957071;28;45738;-53
2022/01/05 03:29:47;;;;;;;;;1.75;1.75;;;;;5.66;58.87;100384.75;4956622;28;45370;-56
2022/01/05 03:32:13;;;;;;;;;1.75;1.25;;;;;5.67;59.97;100380.97;4956766;28;45389;-50
2022/01/05 03:34:39;;;;;;;;;0.75;0.75;;;;;5.70;59.71;100391.47;4955796;28;45533;-52
2022/01/05 03:37:04;;;;;;;;;6.00;2.25;;;;;5.52;59.88;100356.47;4962788;28;45819;-56
2022/01/05 03:39:30;;;;;;;;;1.00;1.00;;;;;5.67;59.79;100397.31;4976402;28;45321;-54
2022/01/05 03:41:55;;;;;;;;;1.50;1.50;;;;;5.62;59.67;100403.34;4976075;28;45367;-55
2022/01/05 03:44:21;;;;;;;;;2.75;2.00;;;;;5.59;59.96;100406.41;4975624;28;45388;-53
2022/01/05 03:46:46;;;;;;;;;3.50;2.00;;;;;5.60;59.31;100407.28;4975233;28;45801;-56
2022/01/05 03:49:12;;;;;;;;;4.75;1.75;;;;;5.56;59.09;100404.91;4975131;28;45286;-53
2022/01/05 03:51:37;;;;;;;;;5.50;4.50;;;;;5.64;58.64;100425.75;4975771;28;45432;-54
2022/01/05 03:54:03;;;;;;;;;4.00;1.50;;;;;5.63;59.58;100420.50;4975936;28;45299;-52
2022/01/05 03:56:28;;;;;;;;;6.00;2.00;;;;;5.46;59.23;100426.13;4976142;28;45550;-51
2022/01/05 03:58:54;;;;;;;;;2.50;1.00;;;;;5.54;59.61;100426.03;4957803;28;45398;-56
2022/01/05 04:01:19;;;;;;;;;3.00;0.50;;;;;5.54;59.23;100428.75;4975117;28;45373;-54
2022/01/05 04:03:45;;;;;;;;;1.00;1.00;;;;;5.60;58.42;100434.50;4959140;28;45360;-52
2022/01/05 04:06:11;;;;;;;;;4.50;2.00;;;;;5.51;58.97;100410.06;4958031;28;47133;-54
2022/01/05 04:08:36;;;;;;;;;3.25;1.25;;;;;5.54;59.78;100431.47;4975549;28;45392;-53
2022/01/05 04:11:02;;;;;;;;;3.00;1.25;;;;;5.59;59.79;100433.63;4975748;28;45514;-55
2022/01/05 04:13:27;;;;;;;;;1.50;1.00;;;;;5.61;59.58;100438.91;4957389;28;45392;-57
2022/01/05 04:15:53;;;;;;;;;2.00;1.00;;;;;5.61;59.23;100444.34;4975138;28;46440;-56
2022/01/05 04:18:18;;;;;;;;;2.25;1.00;;;;;5.57;58.83;100436.53;4975454;28;45501;-56
2022/01/05 04:20:44;;;;;;;;;5.50;2.25;;;;;5.58;58.78;100440.13;4975911;28;45698;-55
2022/01/05 04:23:09;;;;;;;;;2.75;0.00;;;;;5.60;59.65;100446.22;4974333;28;45613;-51
2022/01/05 04:25:35;;;;;;;;;0.50;0.50;;;;;5.30;58.17;100402.66;4975330;28;46674;-56
2022/01/05 04:28:01;;;;;;;;;1.25;1.25;;;;;5.56;59.42;100451.19;4958620;28;45262;-56
2022/01/05 04:30:27;;;;;;;;;1.40;1.40;;;;;5.57;59.80;100450.16;4957565;28;45388;-51
2022/01/05 04:32:52;;;;;;;;;2.00;2.00;;;;;5.47;58.43;100460.50;4975103;28;46014;-56
2022/01/05 04:35:18;;;;;;;;;2.50;1.75;;;;;5.46;59.59;100456.06;4975097;28;46284;-54
2022/01/05 04:37:44;;;;;;;;;1.00;1.00;;;;;5.50;59.60;100462.81;4975271;28;45297;-51
2022/01/05 04:40:10;;;;;;;;;1.50;1.50;;;;;5.35;58.61;100432.03;4975451;28;45456;-53
2022/01/05 04:42:35;;;;;;;;;2.80;1.60;;;;;5.29;60.37;100422.72;4974728;28;45300;-55
2022/01/05 04:45:01;;;;;;;;;1.75;1.00;;;;;5.52;60.40;100460.78;4975420;28;46354;-52
2022/01/05 04:47:26;;;;;;;;;0.50;0.50;;;;;5.49;59.41;100463.84;4974871;28;45451;-51
2022/01/05 04:49:52;;;;;;;;;1.75;1.75;;;;;5.43;60.03;100470.03;4974862;28;45325;-53
2022/01/05 04:52:18;;;;;;;;;2.00;1.00;;;;;5.31;59.38;100474.22;4976037;28;45158;-53
2022/01/05 04:54:43;;;;;;;;;1.00;1.00;;;;;4.96;59.87;100439.34;4957290;28;45611;-52
2022/01/05 04:57:09;;;;;;;;;1.25;1.00;;;;;5.10;59.62;100451.28;4975182;28;45372;-50
2022/01/05 04:59:34;;;;;;;;;4.75;1.00;;;;;5.29;59.95;100477.16;4938045;28;45361;-55
2022/01/05 05:02:00;;;;;;;;;0.25;0.25;;;;;5.20;60.10;100470.94;4955990;28;45245;-52
2022/01/05 05:04:25;;;;;;;;;2.00;2.00;;;;;5.12;60.33;100460.97;4955179;28;47130;-56
2022/01/05 05:06:51;;;;;;;;;3.00;2.00;;;;;5.21;59.56;100475.34;4953961;28;45288;-54
2022/01/05 05:09:17;;;;;;;;;8.00;1.75;;;;;5.23;60.54;100483.34;4955624;28;45332;-55
2022/01/05 05:11:42;;;;;;;;;5.00;4.00;;;;;5.03;60.78;100445.75;4957440;28;45593;-57
2022/01/05 05:14:09;;;;;;;;;3.00;2.00;;;;;5.31;60.47;100485.97;4957105;28;45555;-56
2022/01/05 05:16:34;;;;;;;;;4.40;2.80;;;;;5.33;59.97;100494.78;4954171;28;45416;-55
2022/01/05 05:19:00;;;;;;;;;2.50;1.00;;;;;5.34;59.61;100499.22;4939251;28;45435;-55
2022/01/05 05:21:25;;;;;;;;;1.00;1.00;;;;;5.21;60.24;100482.66;4939723;28;45872;-54
2022/01/05 05:23:51;;;;;;;;;2.25;2.25;;;;;5.32;59.69;100503.16;4939352;28;46578;-56
2022/01/05 05:26:16;;;;;;;;;0.75;0.75;;;;;5.32;60.19;100512.16;4939339;28;45405;-55
2022/01/05 05:28:42;;;;;;;;;4.00;4.00;;;;;5.34;60.45;100507.38;4939487;28;45398;-55
2022/01/05 05:31:07;;;;;;;;;0.75;0.75;;;;;5.38;60.56;100511.44;4939396;28;45571;-55
2022/01/05 05:33:33;;;;;;;;;1.00;1.00;;;;;5.22;60.33;100485.19;4939354;28;45836;-57
2022/01/05 05:35:58;;;;;;;;;1.00;1.00;;;;;5.24;60.28;100510.34;4939167;28;45436;-56
2022/01/05 05:38:24;;;;;;;;;3.50;1.75;;;;;5.17;60.64;100506.66;4939341;28;45421;-51
2022/01/05 05:40:50;;;;;;;;;3.50;1.50;;;;;5.34;60.12;100537.31;4953456;28;45333;-56
2022/01/05 05:43:15;;;;;;;;;3.00;1.25;;;;;5.32;60.78;100527.66;4938660;28;45929;-53
2022/01/05 05:45:41;;;;;;;;;4.25;1.75;;;;;5.28;60.31;100535.31;4937627;28;45262;-56
2022/01/05 05:48:06;;;;;;;;;4.00;2.00;;;;;5.25;60.76;100536.56;4938785;28;45309;-57
2022/01/05 05:50:32;;;;;;;;;5.00;1.75;;;;;5.23;60.61;100544.03;4939615;28;45302;-53
2022/01/05 05:52:57;;;;;;;;;1.00;1.00;;;;;5.22;60.93;100544.22;4937947;28;45556;-55
2022/01/05 05:55:23;;;;;;;;;2.00;1.00;;;;;5.20;60.47;100552.56;4938685;28;45393;-56
2022/01/05 05:57:48;;;;;;;;;3.50;1.50;;;;;5.20;60.22;100549.84;4944096;28;45484;-51
2022/01/05 06:00:14;;;;;;;;;2.00;1.00;;;;;4.99;61.64;100548.63;4977664;28;45528;-53
2022/01/05 06:02:40;;;;;;;;;1.75;1.75;;;;;5.05;61.31;100547.06;4958243;28;45415;-54
2022/01/05 06:05:06;;;;;;;;;1.00;1.00;;;;;5.10;61.94;100550.09;4957424;28;45225;-56
2022/01/05 06:07:31;;;;;;;;;1.00;0.00;;;;;5.17;61.56;100554.81;4956754;28;45708;-52
2022/01/05 06:09:58;;;;;;;;;6.00;1.75;;;;;5.18;60.72;100560.03;4955923;28;45539;-56
2022/01/05 06:12:24;;;;;;;;;2.40;1.80;;;;;5.19;61.38;100564.50;4957384;28;46601;-56
2022/01/05 06:14:50;;;;;;;;;2.00;1.00;;;;;5.19;61.85;100553.59;4958460;28;45284;-51
2022/01/05 06:17:15;;;;;;;;;1.00;1.00;;;;;5.14;60.91;100558.72;4973161;28;45363;-56
2022/01/05 06:19:41;;;;;;;;;1.00;1.00;;;;;5.07;61.72;100561.31;4958051;28;45567;-52
2022/01/05 06:22:06;;;;;;;;;1.00;1.00;;;;;4.96;62.13;100551.69;4956319;28;45366;-52
2022/01/05 06:24:33;;;;;;;;;1.00;1.00;;;;;4.86;61.07;100537.50;4973103;28;45413;-55
2022/01/05 06:26:59;;;;;;;;;3.80;1.00;;;;;4.96;61.11;100578.91;4972876;28;45452;-55
2022/01/05 06:29:24;;;;;;;;;1.00;1.00;;;;;4.99;61.29;100572.25;4972612;28;45394;-54
2022/01/05 06:31:50;;;;;;;;;3.25;1.50;;;;;4.92;61.92;100571.28;4957768;28;45972;-55
2022/01/05 06:34:16;;;;;;;;;2.00;2.00;;;;;4.85;61.83;100585.59;4956251;28;45464;-55
2022/01/05 06:36:42;;;;;;;;;5.40;3.20;;;;;4.81;61.94;100588.84;4957239;28;45475;-52
2022/01/05 06:39:08;;;;;;;;;1.00;1.00;;;;;4.81;61.94;100589.69;4956510;28;45538;-53
2022/01/05 06:41:33;;;;;;;;;1.00;0.00;;;;;4.85;62.87;100592.88;4972626;28;45657;-54
2022/01/05 06:43:59;;;;;;;;;1.00;1.00;;;;;4.87;62.61;100594.41;4957533;28;45500;-53
2022/01/05 06:46:24;;;;;;;;;2.00;2.00;;;;;4.81;62.01;100597.84;4957149;28;45345;-54
2022/01/05 06:48:50;;;;;;;;;0.50;0.50;;;;;4.83;62.53;100609.41;4957725;28;45246;-55
2022/01/05 06:51:16;;;;;;;;;1.00;1.00;;;;;4.64;63.31;100580.75;4957282;28;46079;-51
2022/01/05 06:53:41;;;;;;;;;4.00;0.75;;;;;4.86;63.30;100624.53;4957840;28;45178;-54
2022/01/05 06:56:07;;;;;;;;;1.75;1.00;;;;;4.91;63.38;100624.00;4955925;28;45281;-56
2022/01/05 06:58:33;;;;;;;;;6.75;1.50;;;;;4.87;63.04;100609.91;4966852;28;45357;-52
2022/01/05 07:00:58;;;;;;;;;1.00;0.00;;;;;4.92;62.60;100612.94;4976639;28;45600;-53
2022/01/05 07:03:23;;;;;;;;;0.00;0.00;;;;;4.93;62.71;100624.66;4976539;28;45333;-53
2022/01/05 07:05:49;;;;;;;;;4.50;3.50;;;;;4.76;63.05;100600.28;4976895;28;45405;-51
2022/01/05 07:08:15;;;;;;;;;1.00;0.00;;;;;4.89;62.62;100629.59;4976801;28;45273;-53
2022/01/05 07:10:40;;;;;;;;;3.50;1.00;;;;;4.83;62.57;100619.44;4974764;28;48590;-57
2022/01/05 07:13:06;;;;;;;;;4.50;4.00;;;;;4.78;62.97;100627.25;4976129;28;45439;-51
2022/01/05 07:15:31;;;;;;;;;0.25;0.00;;;;;4.74;63.48;100619.47;4942800;28;45450;-56
2022/01/05 07:17:57;;;;;;;;;2.50;1.00;;;;;4.87;62.73;100634.38;4959132;28;45530;-55
2022/01/05 07:20:22;;;;;;;;;1.00;1.00;;;;;4.74;63.12;100641.22;4976062;28;46121;-52
2022/01/05 07:22:48;;;;;;;;;2.00;1.00;;;;;4.72;62.79;100635.13;4976554;28;45422;-55
2022/01/05 07:25:13;;;;;;;;;2.00;1.00;;;;;4.72;64.40;100642.41;4976373;28;45253;-52
2022/01/05 07:27:39;;;;;;;;;4.00;1.00;;;;;4.77;63.93;100659.06;4959082;28;45407;-49
2022/01/05 07:30:05;;;;;;;;;2.00;1.00;;;;;4.68;63.58;100641.94;4958528;28;45420;-53
2022/01/05 07:32:31;;;;;;;;;1.80;1.80;;;;;4.59;63.58;100662.03;4942671;28;45779;-56
2022/01/05 07:34:56;;;;;;;;;1.00;1.00;;;;;4.50;64.42;100657.59;4976498;28;45329;-55
2022/01/05 07:37:22;;;;;;;;;0.25;0.25;;;;;4.58;64.56;100661.16;4976388;28;45307;-53
2022/01/05 07:39:47;;;;;;;;;3.50;2.00;;;;;4.42;64.08;100650.31;4942321;28;47342;-54
2022/01/05 07:42:13;;;;;;;;;1.75;1.75;;;;;4.52;64.18;100667.28;4974789;28;45447;-55
2022/01/05 07:44:39;;;;;;;;;1.00;1.00;;;;;4.56;65.04;100668.66;4975333;28;45402;-55
2022/01/05 07:47:05;;;;;;;;;5.50;1.50;;;;;4.58;64.64;100660.28;4958811;28;45371;-55
2022/01/05 07:49:31;;;;;;;;;3.80;3.20;;;;;4.48;64.56;100642.31;4958529;28;45472;-51
2022/01/05 07:51:56;;;;;;;;;4.50;4.50;;;;;4.64;64.22;100666.94;4975890;28;45398;-51
2022/01/05 07:54:22;;;;;;;;;2.50;1.75;;;;;4.60;63.78;100685.47;4958698;28;45458;-55
2022/01/05 07:56:47;;;;;;;;;4.00;1.00;;;;;4.66;64.81;100681.19;4976137;28;45435;-50
2022/01/05 07:59:13;;;;;;;;;1.50;0.25;;;;;4.72;64.69;100689.50;4976238;28;46425;-60
2022/01/05 08:01:39;;;;;;;;;1.25;1.00;;;;;4.72;64.74;100677.75;4976068;28;45327;-50
2022/01/05 08:04:04;;;;;;;;;2.50;2.50;;;;;4.65;64.21;100666.75;4942788;28;45404;-50
2022/01/05 08:06:30;;;;;;;;;2.00;2.00;;;;;4.81;63.99;100692.19;4976710;28;45215;-55
2022/01/05 08:08:55;;;;;;;;;2.00;2.00;;;;;4.79;63.53;100705.94;4941800;28;45636;-55
2022/01/05 08:11:21;;;;;;;;;1.00;1.00;;;;;4.20;64.16;100612.84;4995702;28;45422;-55
2022/01/05 08:13:47;;;;;;;;;5.50;4.00;;;;;4.75;64.15;100713.63;4977868;28;45411;-57
2022/01/05 08:16:13;;;;;;;;;3.00;2.00;;;;;4.79;64.04;100711.41;4978235;28;45625;-51
2022/01/05 08:18:38;;;;;;;;;0.75;0.75;;;;;4.77;64.10;100715.31;4995899;28;45434;-53
2022/01/05 08:21:04;;;;;;;;;1.50;1.00;;;;;4.72;64.03;100704.97;4994199;28;45375;-56
2022/01/05 08:23:29;;;;;;;;;2.00;2.00;;;;;4.80;63.95;100723.13;4994859;28;45411;-54
2022/01/05 08:25:55;;;;;;;;;3.50;1.25;;;;;4.77;64.08;100726.19;4996002;28;45326;-57
2022/01/05 08:28:21;;;;;;;;;4.00;3.00;;;;;4.45;64.15;100683.47;4996359;28;46077;-58
2022/01/05 08:30:46;;;;;;;;;4.00;2.00;;;;;4.65;65.32;100723.84;4996060;28;45401;-55
2022/01/05 08:33:15;;;;;;;;;1.00;1.00;;;;;4.79;65.05;100729.59;4978088;28;45797;-55
2022/01/05 08:35:41;;;;;;;;;2.00;2.00;;;;;4.77;64.69;100727.03;4994340;28;45562;-57
2022/01/05 08:38:07;;;;;;;;;2.00;1.00;;;;;4.79;64.67;100726.88;4993164;28;46167;-54
2022/01/05 08:40:33;;;;;;;;;4.00;3.00;;;;;4.78;64.41;100719.72;4958577;28;45394;-61
2022/01/05 08:42:59;;;;;;;;;2.00;2.00;;;;;4.84;64.62;100735.34;4958833;28;45507;-54
2022/01/05 08:45:25;;;;;;;;;1.50;1.50;;;;;4.74;65.10;100730.97;4977127;28;45319;-52
2022/01/05 08:47:51;;;;;;;;;3.50;1.00;;;;;4.78;64.89;100741.47;4982014;28;46791;-56
2022/01/05 08:50:18;;;;;;;;;4.40;1.00;;;;;4.59;64.52;100714.50;4982200;28;45531;-57
2022/01/05 08:52:44;;;;;;;;;2.00;2.00;;;;;4.77;64.73;100745.22;4981771;28;45320;-57
2022/01/05 08:55:12;;;;;;;;;3.00;3.00;;;;;4.62;63.87;100729.63;4964946;28;45275;-56
2022/01/05 08:57:38;;;;;;;;;1.60;1.60;;;;;4.59;65.38;100744.41;4964448;28;46501;-57
2022/01/05 09:00:05;;;;;;;;;1.00;1.00;;;;;4.59;65.16;100743.56;4981743;28;45423;-55
2022/01/05 09:02:30;;;;;;;;;4.00;2.00;;;;;4.65;65.25;100742.88;4982151;28;45867;-56
2022/01/05 09:04:56;;;;;;;;;1.75;1.75;;;;;4.74;65.48;100751.84;4982412;28;45327;-54
2022/01/05 09:07:21;;;;;;;;;2.00;1.00;;;;;4.70;64.13;100762.22;4981724;28;46020;-55
2022/01/05 09:09:47;;;;;;;;;2.50;2.50;;;;;4.61;64.48;100766.00;4961619;28;45423;-57
2022/01/05 09:12:12;;;;;;;;;5.50;2.00;;;;;4.66;65.38;100760.03;4967409;28;45319;-55
2022/01/05 09:14:39;;;;;;;;;5.50;1.00;;;;;4.74;65.04;100769.03;4979184;28;45414;-53
2022/01/05 09:17:05;;;;;;;;;1.00;1.00;;;;;4.63;65.05;100758.50;4981057;28;45439;-54
2022/01/05 09:19:30;;;;;;;;;1.00;1.00;;;;;4.70;64.47;100766.84;4981805;28;45513;-56
2022/01/05 09:21:56;;;;;;;;;1.75;1.75;;;;;4.75;64.40;100773.44;4981985;28;45332;-56
2022/01/05 09:24:21;;;;;;;;;4.00;2.00;;;;;4.72;64.94;100762.94;4982178;28;45819;-52
2022/01/05 09:26:47;;;;;;;;;1.00;1.00;;;;;4.85;65.51;100773.25;4982022;28;46008;-55
2022/01/05 09:29:12;;;;;;;;;5.75;1.75;;;;;4.32;64.68;100677.72;4963876;28;45831;-58
2022/01/05 09:31:38;;;;;;;;;7.00;4.25;;;;;4.85;66.25;100777.81;4982178;28;45302;-52
2022/01/05 09:34:04;;;;;;;;;2.00;2.00;;;;;4.88;65.19;100772.91;4976574;28;45375;-57
2022/01/05 09:36:41;;;;;;;;;2.25;1.25;;;;;4.92;64.92;100786.16;4944624;28;45440;-57
2022/01/05 09:41:56;;;;;;;;;3.20;3.20;;;;;4.92;65.04;100789.75;4978767;28;45413;-56
2022/01/05 09:44:42;;;;;;;;;3.60;3.60;;;;;4.97;65.87;100794.66;4964753;28;45348;-55
2022/01/05 09:47:19;;;;;;;;;1.80;1.60;;;;;5.05;64.33;100805.50;4981166;28;46114;-58
2022/01/05 09:50:11;;;;;;;;;3.60;1.20;;;;;5.08;64.51;100805.16;4981459;28;45470;-53
2022/01/05 09:52:39;;;;;;;;;6.40;4.00;;;;;5.17;64.26;100811.41;4918353;28;45656;-60
2022/01/05 09:55:05;;;;;;;;;6.00;2.00;;;;;5.19;64.60;100808.53;4962786;28;45438;-53
2022/01/05 09:57:31;;;;;;;;;4.00;1.80;;;;;5.24;64.62;100817.84;4972540;28;47552;-58
2022/01/05 09:59:56;;;;;;;;;5.00;3.50;;;;;5.28;64.06;100815.63;4971986;28;45575;-56
2022/01/05 10:02:22;;;;;;;;;4.25;1.50;;;;;5.10;63.76;100789.53;4973214;28;45505;-56
2022/01/05 10:04:48;;;;;;;;;4.50;1.00;;;;;5.24;64.74;100827.91;4973971;28;45450;-59
2022/01/05 10:07:13;;;;;;;;;3.50;0.50;;;;;5.18;64.15;100832.16;4973720;28;46450;-56
2022/01/05 10:09:40;;;;;;;;;4.00;2.00;;;;;5.26;64.96;100828.56;4973433;28;45797;-51
2022/01/05 10:12:06;;;;;;;;;4.80;2.80;;;;;5.19;65.22;100828.44;4973539;28;45464;-56
2022/01/05 10:14:32;;;;;;;;;5.20;3.60;;;;;5.31;64.40;100836.22;4956246;28;45634;-60
2022/01/05 10:17:04;;;;;;;;;1.75;1.75;;;;;5.45;63.90;100832.78;4956449;28;46991;-54
2022/01/05 10:19:30;;;;;;;;;1.60;1.00;;;;;5.61;63.86;100839.19;4974341;28;45428;-54
2022/01/05 10:21:57;;;;;;;;;1.00;1.00;;;;;5.74;63.79;100835.88;4973507;28;45400;-54
2022/01/05 10:24:42;;;;;;;;;2.80;2.80;;;;;5.56;62.78;100807.88;4973411;28;45415;-55
2022/01/05 10:27:08;;;;;;;;;1.00;1.00;;;;;5.66;63.39;100815.81;4955945;28;45498;-58
2022/01/05 10:29:33;;;;;;;;;3.50;1.25;;;;;5.79;63.27;100812.53;4938697;28;45793;-54
2022/01/05 10:32:01;;;;;;;;;2.00;2.00;;;;;6.07;61.62;100844.75;4974108;28;45511;-60
2022/01/05 10:34:28;;;;;;;;;1.80;1.80;;;;;6.16;61.27;100850.16;4972642;28;45635;-55
2022/01/05 10:36:59;;;;;;;;;4.00;2.00;;;;;5.92;60.71;100811.94;4942597;28;46075;-55
2022/01/05 10:39:31;;;;;;;;;4.20;3.60;;;;;6.05;61.44;100855.00;4973399;28;45603;-53
2022/01/05 10:42:06;;;;;;;;;3.40;2.20;;;;;5.77;62.25;100822.75;4953498;28;45513;-53
2022/01/05 10:44:32;;;;;;;;;2.80;1.20;;;;;5.99;61.80;100865.72;4936789;28;45309;-52
2022/01/05 10:46:58;;;;;;;;;1.00;1.00;;;;;6.00;62.24;100853.78;4957716;28;45521;-54
2022/01/05 10:49:25;;;;;;;;;4.40;3.00;;;;;6.12;61.74;100870.66;4971154;28;45450;-54
2022/01/05 10:51:50;;;;;;;;;2.00;1.20;;;;;6.20;61.97;100870.59;4944994;28;45907;-53
2022/01/05 10:54:17;;;;;;;;;2.00;2.00;;;;;6.31;60.77;100859.28;4972370;28;45496;-50
2022/01/05 10:56:43;;;;;;;;;4.00;4.00;;;;;6.50;61.02;100857.94;4971601;28;45557;-53
2022/01/05 10:59:09;;;;;;;;;6.75;2.00;;;;;6.61;60.61;100861.25;4954376;28;45469;-53
2022/01/05 11:01:35;;;;;;;;;1.40;1.40;;;;;6.62;60.11;100855.63;4953452;28;45509;-55
2022/01/05 11:04:20;;;;;;;;;6.00;2.00;;;;;6.61;60.03;100861.25;4954779;28;45736;-53
2022/01/05 11:07:03;;;;;;;;;7.80;1.80;;;;;6.57;59.94;100855.31;4971708;28;45665;-54
2022/01/05 11:09:32;;;;;;;;;1.00;1.00;;;;;6.62;60.01;100852.06;4972363;28;45800;-54
2022/01/05 11:11:58;;;;;;;;;3.80;3.80;;;;;6.64;60.10;100864.50;4954973;28;45493;-53
2022/01/05 11:14:31;;;;;;;;;1.25;1.25;;;;;6.67;59.54;100871.44;4971326;28;45748;-52
2022/01/05 11:17:01;;;;;;;;;1.80;0.80;;;;;6.70;59.89;100865.63;4971207;28;45798;-54
2022/01/05 11:19:28;;;;;;;;;1.00;1.00;;;;;6.68;60.14;100861.38;4975114;28;45520;-54
2022/01/05 11:22:07;;;;;;;;;4.00;3.40;;;;;6.73;59.15;100858.94;4972799;28;45607;-55
2022/01/05 11:24:47;;;;;;;;;2.00;2.00;;;;;6.61;59.68;100821.19;4959973;28;45333;-56
2022/01/05 11:27:25;;;;;;;;;2.60;2.00;;;;;6.65;59.04;100838.03;4970112;28;45608;-53
2022/01/05 11:29:50;;;;;;;;;1.40;1.40;;;;;6.67;59.37;100835.13;4971262;28;46309;-57
2022/01/05 11:32:20;;;;;;;;;4.50;2.00;;;;;7.09;59.55;100880.09;4971858;28;45443;-56